Time;durP1;ratioP1;P1;durP2;ratioP2;P2;SDS_P1;SDS_P2;PMS_P1;PMS_P2;Temp;Humidity;BMP_temperature;BMP_pressure;BME280_temperature;BME280_humidity;BME280_pressure;Samples;Min_cycle;Max_cycle;Signal;HPM_P1;HPM_P2
2022/06/08 00:00:22;;;;;;;0.10;0.10;;;;;;;;;;6237043;22;20016;-49
2022/06/08 00:02:51;;;;;;;19.02;1.20;;;;;;;;;;6235516;22;20054;-49
2022/06/08 00:05:17;;;;;;;0.08;0.08;;;;;;;;;;6233531;22;20016;-48
2022/06/08 00:07:42;;;;;;;0.00;0.00;;;;;;;;;;6238486;22;20004;-47
2022/06/08 00:10:08;;;;;;;0.00;0.00;;;;;;;;;;6235856;23;20027;-50
2022/06/08 00:12:34;;;;;;;0.00;0.00;;;;;;;;;;6236053;22;20027;-52
2022/06/08 00:14:59;;;;;;;0.00;0.00;;;;;;;;;;6237661;22;20083;-53
2022/06/08 00:17:24;;;;;;;0.00;0.00;;;;;;;;;;6233232;22;20354;-52
2022/06/08 00:19:49;;;;;;;0.00;0.00;;;;;;;;;;6239940;22;20032;-46
2022/06/08 00:22:15;;;;;;;0.00;0.00;;;;;;;;;;6233190;22;20016;-49
2022/06/08 00:24:40;;;;;;;0.00;0.00;;;;;;;;;;6238002;22;20004;-53
2022/06/08 00:27:06;;;;;;;0.00;0.00;;;;;;;;;;6234597;23;20008;-53
2022/06/08 00:29:32;;;;;;;0.10;0.10;;;;;;;;;;6235403;22;20020;-50
2022/06/08 00:31:57;;;;;;;0.00;0.00;;;;;;;;;;6235270;22;20012;-52
2022/06/08 00:34:22;;;;;;;0.00;0.00;;;;;;;;;;6238111;22;20023;-46
2022/06/08 00:36:47;;;;;;;0.00;0.00;;;;;;;;;;6237996;22;20012;-49
2022/06/08 00:39:13;;;;;;;0.00;0.00;;;;;;;;;;6234434;22;20000;-49
2022/06/08 00:41:46;;;;;;;0.00;0.00;;;;;;;;;;6235036;22;20004;-48
2022/06/08 00:44:15;;;;;;;0.00;0.00;;;;;;;;;;6233648;22;20011;-47
2022/06/08 00:46:40;;;;;;;0.47;0.20;;;;;;;;;;6233323;23;20442;-50
2022/06/08 00:49:12;;;;;;;0.00;0.00;;;;;;;;;;6237400;22;20020;-48
2022/06/08 00:51:38;;;;;;;0.00;0.00;;;;;;;;;;6236844;22;20020;-49
2022/06/08 00:54:06;;;;;;;0.00;0.00;;;;;;;;;;6237694;22;20031;-47
2022/06/08 00:56:36;;;;;;;0.00;0.00;;;;;;;;;;6236110;22;20050;-52
2022/06/08 00:59:02;;;;;;;0.00;0.00;;;;;;;;;;6234361;22;20008;-49
2022/06/08 01:01:27;;;;;;;0.00;0.00;;;;;;;;;;6236461;22;20425;-51
2022/06/08 01:04:10;;;;;;;0.00;0.00;;;;;;;;;;6235504;22;20478;-50
2022/06/08 01:06:35;;;;;;;0.57;0.57;;;;;;;;;;6239312;22;20457;-47
2022/06/08 01:09:01;;;;;;;0.00;0.00;;;;;;;;;;6234505;22;20024;-52
2022/06/08 01:11:29;;;;;;;0.00;0.00;;;;;;;;;;6236760;22;20023;-51
2022/06/08 01:13:57;;;;;;;0.00;0.00;;;;;;;;;;6234433;22;20045;-51
2022/06/08 01:16:22;;;;;;;0.00;0.00;;;;;;;;;;6234925;22;20027;-47
2022/06/08 01:18:47;;;;;;;0.00;0.00;;;;;;;;;;6234588;22;20012;-52
2022/06/08 01:21:22;;;;;;;0.00;0.00;;;;;;;;;;6237814;22;20783;-52
2022/06/08 01:23:48;;;;;;;0.00;0.00;;;;;;;;;;6235258;22;20012;-51
2022/06/08 01:26:16;;;;;;;0.00;0.00;;;;;;;;;;6236456;22;20033;-50
2022/06/08 01:28:52;;;;;;;0.00;0.00;;;;;;;;;;6235649;22;20019;-52
2022/06/08 01:31:28;;;;;;;0.00;0.00;;;;;;;;;;6236391;22;20035;-51
2022/06/08 01:33:59;;;;;;;0.00;0.00;;;;;;;;;;6235832;22;20043;-50
2022/06/08 01:36:33;;;;;;;0.00;0.00;;;;;;;;;;6234407;22;20027;-50
2022/06/08 01:39:12;;;;;;;0.00;0.00;;;;;;;;;;6231349;23;20004;-48
2022/06/08 01:41:49;;;;;;;0.00;0.00;;;;;;;;;;6236256;22;20012;-50
2022/06/08 01:44:19;;;;;;;0.00;0.00;;;;;;;;;;6231163;22;20038;-49
2022/06/08 01:46:57;;;;;;;0.00;0.00;;;;;;;;;;6238142;22;20526;-52
2022/06/08 01:49:36;;;;;;;0.00;0.00;;;;;;;;;;6234462;22;20050;-51
2022/06/08 01:52:20;;;;;;;0.35;0.35;;;;;;;;;;6234837;22;20028;-49
2022/06/08 01:55:04;;;;;;;0.00;0.00;;;;;;;;;;6233753;22;20462;-52
2022/06/08 01:57:48;;;;;;;0.00;0.00;;;;;;;;;;6235465;22;20039;-51
2022/06/08 02:00:16;;;;;;;0.00;0.00;;;;;;;;;;6235342;22;20070;-49
2022/06/08 02:02:51;;;;;;;0.00;0.00;;;;;;;;;;6234744;22;20059;-51
2022/06/08 02:05:29;;;;;;;0.00;0.00;;;;;;;;;;6237972;22;20020;-49
2022/06/08 02:08:00;;;;;;;0.00;0.00;;;;;;;;;;6236604;22;20008;-50
2022/06/08 02:10:35;;;;;;;0.00;0.00;;;;;;;;;;6232618;22;20453;-51
2022/06/08 02:13:06;;;;;;;0.00;0.00;;;;;;;;;;6234746;22;20019;-52
2022/06/08 02:15:34;;;;;;;0.00;0.00;;;;;;;;;;6237234;22;20018;-49
2022/06/08 02:18:04;;;;;;;0.00;0.00;;;;;;;;;;6238779;22;20019;-50
2022/06/08 02:20:36;;;;;;;0.00;0.00;;;;;;;;;;6237264;22;20012;-48
2022/06/08 02:23:10;;;;;;;0.00;0.00;;;;;;;;;;6236803;22;20005;-50
2022/06/08 02:25:47;;;;;;;0.00;0.00;;;;;;;;;;6237809;22;20896;-53
2022/06/08 02:28:19;;;;;;;0.08;0.08;;;;;;;;;;6237019;22;20028;-51
2022/06/08 02:30:49;;;;;;;0.00;0.00;;;;;;;;;;6235429;22;20350;-49
2022/06/08 02:36:02;;;;;;;0.10;0.10;;;;;;;;;;6238777;22;20022;-48
2022/06/08 02:38:32;;;;;;;0.00;0.00;;;;;;;;;;6232603;22;20012;-47
2022/06/08 02:40:59;;;;;;;0.00;0.00;;;;;;;;;;6233877;22;20008;-47
2022/06/08 02:43:36;;;;;;;0.00;0.00;;;;;;;;;;6225665;22;20031;-49
2022/06/08 02:46:13;;;;;;;0.00;0.00;;;;;;;;;;6236332;22;20478;-49
2022/06/08 02:48:38;;;;;;;0.00;0.00;;;;;;;;;;6232963;22;20016;-50
2022/06/08 02:51:04;;;;;;;0.00;0.00;;;;;;;;;;6235260;22;20024;-46
2022/06/08 02:53:29;;;;;;;0.10;0.10;;;;;;;;;;6235826;22;20012;-47
2022/06/08 02:55:57;;;;;;;0.00;0.00;;;;;;;;;;6235062;22;20008;-49
2022/06/08 02:58:46;;;;;;;0.00;0.00;;;;;;;;;;6234101;22;20019;-47
2022/06/08 03:01:25;;;;;;;0.00;0.00;;;;;;;;;;6205797;22;20030;-53
2022/06/08 03:03:54;;;;;;;0.00;0.00;;;;;;;;;;6226253;22;20067;-49
2022/06/08 03:06:24;;;;;;;0.00;0.00;;;;;;;;;;6234015;22;20362;-48
2022/06/08 03:08:55;;;;;;;0.00;0.00;;;;;;;;;;6230652;22;20055;-48
2022/06/08 03:11:22;;;;;;;0.00;0.00;;;;;;;;;;6231082;22;20012;-48
2022/06/08 03:13:53;;;;;;;0.00;0.00;;;;;;;;;;6235096;22;20018;-47
2022/06/08 03:16:24;;;;;;;0.00;0.00;;;;;;;;;;6232655;22;20027;-48
2022/06/08 03:18:50;;;;;;;0.00;0.00;;;;;;;;;;6231126;22;20055;-48
2022/06/08 03:21:15;;;;;;;0.25;0.25;;;;;;;;;;6230643;22;20016;-47
2022/06/08 03:23:40;;;;;;;0.10;0.10;;;;;;;;;;6235301;22;20074;-48
2022/06/08 03:26:05;;;;;;;0.00;0.00;;;;;;;;;;6233779;22;20089;-48
2022/06/08 03:28:33;;;;;;;0.00;0.00;;;;;;;;;;6234050;22;20024;-50
2022/06/08 03:30:58;;;;;;;0.00;0.00;;;;;;;;;;6229413;22;20028;-51
2022/06/08 03:33:23;;;;;;;0.10;0.10;;;;;;;;;;6234124;22;20016;-50
2022/06/08 03:35:48;;;;;;;0.00;0.00;;;;;;;;;;6231946;22;20016;-49
2022/06/08 03:38:14;;;;;;;0.00;0.00;;;;;;;;;;6235283;22;20016;-48
2022/06/08 03:40:39;;;;;;;0.00;0.00;;;;;;;;;;6233608;22;20825;-49
2022/06/08 03:43:04;;;;;;;0.00;0.00;;;;;;;;;;6236807;22;20020;-50
2022/06/08 03:45:35;;;;;;;0.00;0.00;;;;;;;;;;6230861;22;20008;-50
2022/06/08 03:48:00;;;;;;;0.00;0.00;;;;;;;;;;6235085;22;20094;-48
2022/06/08 03:50:28;;;;;;;0.05;0.05;;;;;;;;;;6228838;22;20367;-49
2022/06/08 03:52:56;;;;;;;0.10;0.10;;;;;;;;;;6235950;22;20462;-48
2022/06/08 03:55:22;;;;;;;0.32;0.32;;;;;;;;;;6230787;22;20016;-47
2022/06/08 03:57:49;;;;;;;0.00;0.00;;;;;;;;;;6224995;22;20518;-50
2022/06/08 04:00:15;;;;;;;0.38;0.28;;;;;;;;;;6232370;22;20020;-47
2022/06/08 04:02:41;;;;;;;0.00;0.00;;;;;;;;;;6236212;22;20034;-50
2022/06/08 04:05:09;;;;;;;0.00;0.00;;;;;;;;;;6232919;22;20016;-50
2022/06/08 04:07:34;;;;;;;0.00;0.00;;;;;;;;;;6236167;22;20077;-52
2022/06/08 04:09:59;;;;;;;0.20;0.20;;;;;;;;;;6237429;22;20670;-51
2022/06/08 04:12:26;;;;;;;0.00;0.00;;;;;;;;;;6235302;22;20016;-51
2022/06/08 04:14:51;;;;;;;0.00;0.00;;;;;;;;;;6237031;22;20027;-48
2022/06/08 04:17:16;;;;;;;0.30;0.30;;;;;;;;;;6235557;22;20012;-53
2022/06/08 04:19:42;;;;;;;0.00;0.00;;;;;;;;;;6237173;22;20509;-50
2022/06/08 04:22:07;;;;;;;0.00;0.00;;;;;;;;;;6236103;22;20008;-49
2022/06/08 04:24:33;;;;;;;0.00;0.00;;;;;;;;;;6234699;22;20005;-52
2022/06/08 04:26:58;;;;;;;0.00;0.00;;;;;;;;;;6233675;22;20047;-49
2022/06/08 04:29:23;;;;;;;0.00;0.00;;;;;;;;;;6232474;22;20028;-47
2022/06/08 04:31:49;;;;;;;0.28;0.28;;;;;;;;;;6235345;22;20015;-47
2022/06/08 04:34:14;;;;;;;0.10;0.10;;;;;;;;;;6233127;22;20044;-48
2022/06/08 04:36:40;;;;;;;0.00;0.00;;;;;;;;;;6234237;22;20012;-48
2022/06/08 04:39:07;;;;;;;0.00;0.00;;;;;;;;;;6233949;22;20020;-49
2022/06/08 04:41:33;;;;;;;0.00;0.00;;;;;;;;;;6230632;22;20082;-49
2022/06/08 04:43:59;;;;;;;0.00;0.00;;;;;;;;;;6235079;22;20043;-49
2022/06/08 04:46:24;;;;;;;0.20;0.20;;;;;;;;;;6231466;22;20020;-50
2022/06/08 04:48:49;;;;;;;0.00;0.00;;;;;;;;;;6234677;22;20035;-47
2022/06/08 04:51:15;;;;;;;0.10;0.10;;;;;;;;;;6229486;22;20326;-47
2022/06/08 04:53:42;;;;;;;0.20;0.20;;;;;;;;;;6228517;22;20012;-50
2022/06/08 04:56:08;;;;;;;0.00;0.00;;;;;;;;;;6231108;22;20023;-47
2022/06/08 04:58:34;;;;;;;0.00;0.00;;;;;;;;;;6232642;22;20008;-50
2022/06/08 05:00:59;;;;;;;0.00;0.00;;;;;;;;;;6232575;22;20043;-50
2022/06/08 05:03:24;;;;;;;0.00;0.00;;;;;;;;;;6232402;22;20131;-47
2022/06/08 05:05:50;;;;;;;0.40;0.40;;;;;;;;;;6234453;22;20012;-49
2022/06/08 05:08:20;;;;;;;0.00;0.00;;;;;;;;;;6237710;22;20024;-48
2022/06/08 05:10:47;;;;;;;0.00;0.00;;;;;;;;;;6228752;23;20342;-51
2022/06/08 05:13:13;;;;;;;0.00;0.00;;;;;;;;;;6234337;22;20030;-50
2022/06/08 05:15:39;;;;;;;0.10;0.10;;;;;;;;;;6236198;22;20012;-49
2022/06/08 05:18:05;;;;;;;0.40;0.30;;;;;;;;;;6238018;22;20457;-50
2022/06/08 05:20:31;;;;;;;0.00;0.00;;;;;;;;;;6234919;22;20037;-51
2022/06/08 05:22:56;;;;;;;0.00;0.00;;;;;;;;;;6235853;22;20005;-47
2022/06/08 05:25:30;;;;;;;0.00;0.00;;;;;;;;;;6236423;22;20035;-49
2022/06/08 05:27:55;;;;;;;0.00;0.00;;;;;;;;;;6234629;22;20016;-50
2022/06/08 05:30:21;;;;;;;0.00;0.00;;;;;;;;;;6234785;22;20064;-48
2022/06/08 05:32:46;;;;;;;0.28;0.28;;;;;;;;;;6236245;22;20008;-51
2022/06/08 05:35:12;;;;;;;0.00;0.00;;;;;;;;;;6233794;22;20020;-51
2022/06/08 05:37:37;;;;;;;0.05;0.05;;;;;;;;;;6235233;22;20004;-49
2022/06/08 05:40:03;;;;;;;0.00;0.00;;;;;;;;;;6237270;22;20012;-50
2022/06/08 05:42:29;;;;;;;0.00;0.00;;;;;;;;;;6233517;22;20009;-50
2022/06/08 05:44:56;;;;;;;0.00;0.00;;;;;;;;;;6236251;22;20393;-51
2022/06/08 05:47:21;;;;;;;0.00;0.00;;;;;;;;;;6233256;22;20249;-51
2022/06/08 05:49:47;;;;;;;0.00;0.00;;;;;;;;;;6236662;22;20706;-50
2022/06/08 05:52:12;;;;;;;0.00;0.00;;;;;;;;;;6237553;22;20047;-52
2022/06/08 05:54:37;;;;;;;0.00;0.00;;;;;;;;;;6239089;22;20042;-48
2022/06/08 05:57:03;;;;;;;0.43;0.43;;;;;;;;;;6238317;22;20028;-50
2022/06/08 05:59:28;;;;;;;0.38;0.38;;;;;;;;;;6237907;22;20012;-49
2022/06/08 06:01:54;;;;;;;0.20;0.10;;;;;;;;;;6236568;22;20028;-50
2022/06/08 06:04:20;;;;;;;0.00;0.00;;;;;;;;;;6235538;22;20008;-50
2022/06/08 06:06:48;;;;;;;0.00;0.00;;;;;;;;;;6237218;22;20012;-50
2022/06/08 06:09:14;;;;;;;0.00;0.00;;;;;;;;;;6238529;22;20024;-50
2022/06/08 06:11:39;;;;;;;0.00;0.00;;;;;;;;;;6237673;22;20075;-52
2022/06/08 06:14:05;;;;;;;0.00;0.00;;;;;;;;;;6236373;22;20016;-50
2022/06/08 06:16:30;;;;;;;0.00;0.00;;;;;;;;;;6236903;22;20088;-49
2022/06/08 06:18:56;;;;;;;0.00;0.00;;;;;;;;;;6237260;23;20023;-54
2022/06/08 06:21:25;;;;;;;0.00;0.00;;;;;;;;;;6237487;22;20016;-50
2022/06/08 06:23:50;;;;;;;0.00;0.00;;;;;;;;;;6236581;22;20066;-49
2022/06/08 06:26:16;;;;;;;0.00;0.00;;;;;;;;;;6237419;22;20020;-52
2022/06/08 06:28:41;;;;;;;0.00;0.00;;;;;;;;;;6236343;22;20044;-50
2022/06/08 06:31:07;;;;;;;0.00;0.00;;;;;;;;;;6235143;22;20035;-49
2022/06/08 06:33:33;;;;;;;0.00;0.00;;;;;;;;;;6236902;22;20008;-48
2022/06/08 06:35:58;;;;;;;0.20;0.20;;;;;;;;;;6239648;22;20008;-49
2022/06/08 06:38:23;;;;;;;0.00;0.00;;;;;;;;;;6236309;22;20012;-51
2022/06/08 06:40:49;;;;;;;0.00;0.00;;;;;;;;;;6237546;22;20022;-50
2022/06/08 06:43:14;;;;;;;0.00;0.00;;;;;;;;;;6236125;22;20016;-48
2022/06/08 06:45:40;;;;;;;0.00;0.00;;;;;;;;;;6237528;22;20023;-49
2022/06/08 06:48:05;;;;;;;0.00;0.00;;;;;;;;;;6239466;22;20078;-50
2022/06/08 06:50:31;;;;;;;0.00;0.00;;;;;;;;;;6233798;22;20028;-52
2022/06/08 06:52:59;;;;;;;0.00;0.00;;;;;;;;;;6239320;22;20008;-53
2022/06/08 06:55:26;;;;;;;0.00;0.00;;;;;;;;;;6233415;22;20016;-50
2022/06/08 06:57:52;;;;;;;0.00;0.00;;;;;;;;;;6238033;22;20023;-52
2022/06/08 07:00:18;;;;;;;0.00;0.00;;;;;;;;;;6230600;22;20012;-52
2022/06/08 07:02:44;;;;;;;0.00;0.00;;;;;;;;;;6237813;22;20012;-49
2022/06/08 07:05:14;;;;;;;0.00;0.00;;;;;;;;;;6231645;22;20038;-51
2022/06/08 07:07:39;;;;;;;0.00;0.00;;;;;;;;;;6238883;22;20019;-49
2022/06/08 07:10:05;;;;;;;0.25;0.25;;;;;;;;;;6237006;22;20024;-48
2022/06/08 07:12:30;;;;;;;0.00;0.00;;;;;;;;;;6234941;22;20117;-52
2022/06/08 07:14:55;;;;;;;0.00;0.00;;;;;;;;;;6236430;23;20023;-52
2022/06/08 07:17:21;;;;;;;0.00;0.00;;;;;;;;;;6237165;22;20012;-49
2022/06/08 07:19:46;;;;;;;0.00;0.00;;;;;;;;;;6235503;22;20018;-52
2022/06/08 07:22:11;;;;;;;0.00;0.00;;;;;;;;;;6233574;22;20095;-52
2022/06/08 07:24:37;;;;;;;0.00;0.00;;;;;;;;;;6236294;22;20012;-48
2022/06/08 07:27:03;;;;;;;0.00;0.00;;;;;;;;;;6222670;22;20111;-52
2022/06/08 07:29:28;;;;;;;0.00;0.00;;;;;;;;;;6227241;22;20304;-51
2022/06/08 07:31:54;;;;;;;0.00;0.00;;;;;;;;;;6237947;22;20054;-52
2022/06/08 07:34:19;;;;;;;0.00;0.00;;;;;;;;;;6235247;22;20013;-52
2022/06/08 07:36:44;;;;;;;0.00;0.00;;;;;;;;;;6236476;22;20027;-51
2022/06/08 07:39:10;;;;;;;1.35;0.80;;;;;;;;;;6235854;22;20066;-52
2022/06/08 07:41:36;;;;;;;0.52;0.35;;;;;;;;;;6238025;22;20014;-48
2022/06/08 07:44:01;;;;;;;0.00;0.00;;;;;;;;;;6235898;22;20024;-49
2022/06/08 07:46:29;;;;;;;0.00;0.00;;;;;;;;;;6234032;22;20596;-50
2022/06/08 07:51:38;;;;;;;0.00;0.00;;;;;;;;;;6234868;22;20077;-50
2022/06/08 07:54:04;;;;;;;0.00;0.00;;;;;;;;;;6233974;22;20646;-52
2022/06/08 07:56:29;;;;;;;0.00;0.00;;;;;;;;;;6236372;22;20059;-52
2022/06/08 07:58:54;;;;;;;0.00;0.00;;;;;;;;;;6236677;22;20012;-48
2022/06/08 08:01:20;;;;;;;0.00;0.00;;;;;;;;;;6231119;22;20004;-52
2022/06/08 08:03:45;;;;;;;0.00;0.00;;;;;;;;;;6237979;22;20016;-51
2022/06/08 08:06:11;;;;;;;0.00;0.00;;;;;;;;;;6235428;22;20011;-51
2022/06/08 08:08:37;;;;;;;0.70;0.57;;;;;;;;;;6235403;22;20020;-52
2022/06/08 08:11:03;;;;;;;0.00;0.00;;;;;;;;;;6225105;23;20066;-50
2022/06/08 08:13:28;;;;;;;0.00;0.00;;;;;;;;;;6231388;22;20007;-48
2022/06/08 08:15:54;;;;;;;0.00;0.00;;;;;;;;;;6233667;22;20023;-52
2022/06/08 08:18:19;;;;;;;0.30;0.30;;;;;;;;;;6221354;22;20012;-49
2022/06/08 08:20:44;;;;;;;0.00;0.00;;;;;;;;;;6219947;22;20380;-50
2022/06/08 08:23:09;;;;;;;0.00;0.00;;;;;;;;;;6219421;22;20000;-52
2022/06/08 08:25:35;;;;;;;0.00;0.00;;;;;;;;;;6214577;22;20019;-48
2022/06/08 08:28:00;;;;;;;0.00;0.00;;;;;;;;;;6221923;22;20020;-48
2022/06/08 08:30:27;;;;;;;0.15;0.15;;;;;;;;;;6214969;22;20139;-51
2022/06/08 08:32:53;;;;;;;0.20;0.20;;;;;;;;;;6219385;22;20063;-50
2022/06/08 08:35:18;;;;;;;0.00;0.00;;;;;;;;;;6215074;22;20016;-50
2022/06/08 08:37:44;;;;;;;0.65;0.65;;;;;;;;;;6234406;23;20428;-52
2022/06/08 08:40:22;;;;;;;0.47;0.40;;;;;;;;;;6233598;22;20060;-51
2022/06/08 08:42:47;;;;;;;0.00;0.00;;;;;;;;;;6237929;22;20039;-50
2022/06/08 08:45:14;;;;;;;8.00;1.20;;;;;;;;;;6236790;22;20086;-52
2022/06/08 08:47:45;;;;;;;0.65;0.65;;;;;;;;;;6228355;22;20347;-49
2022/06/08 08:50:30;;;;;;;0.00;0.00;;;;;;;;;;6234125;22;20604;-49
2022/06/08 08:53:01;;;;;;;0.20;0.20;;;;;;;;;;6236924;22;20008;-49
2022/06/08 08:55:33;;;;;;;0.05;0.05;;;;;;;;;;6210208;22;20497;-51
2022/06/08 08:58:03;;;;;;;0.52;0.52;;;;;;;;;;6236646;22;20468;-48
2022/06/08 09:00:37;;;;;;;0.70;0.70;;;;;;;;;;6236452;22;20012;-47
2022/06/08 09:03:14;;;;;;;0.20;0.20;;;;;;;;;;6227803;22;20028;-48
2022/06/08 09:05:42;;;;;;;0.00;0.00;;;;;;;;;;6225269;22;20491;-52
2022/06/08 09:08:09;;;;;;;0.00;0.00;;;;;;;;;;6237822;22;20083;-49
2022/06/08 09:10:34;;;;;;;0.00;0.00;;;;;;;;;;6236453;22;20019;-50
2022/06/08 09:13:02;;;;;;;0.00;0.00;;;;;;;;;;6226811;22;20008;-51
2022/06/08 09:15:46;;;;;;;0.00;0.00;;;;;;;;;;6232711;22;20016;-50
2022/06/08 09:18:18;;;;;;;0.00;0.00;;;;;;;;;;6235496;22;20114;-52
2022/06/08 09:20:44;;;;;;;0.25;0.25;;;;;;;;;;6224634;22;20040;-49
2022/06/08 09:23:28;;;;;;;0.10;0.10;;;;;;;;;;6234916;22;20055;-50
2022/06/08 09:26:01;;;;;;;0.00;0.00;;;;;;;;;;6236963;22;20012;-51
2022/06/08 09:28:27;;;;;;;0.10;0.10;;;;;;;;;;6233655;22;20058;-53
2022/06/08 09:30:53;;;;;;;0.00;0.00;;;;;;;;;;6227518;22;20300;-48
2022/06/08 09:33:33;;;;;;;0.22;0.22;;;;;;;;;;6236932;22;20087;-49
2022/06/08 09:36:08;;;;;;;0.00;0.00;;;;;;;;;;6235011;22;20043;-53
2022/06/08 09:38:40;;;;;;;0.00;0.00;;;;;;;;;;6235574;22;20099;-49
2022/06/08 09:41:20;;;;;;;0.00;0.00;;;;;;;;;;6227843;23;20012;-48
2022/06/08 09:43:49;;;;;;;0.00;0.00;;;;;;;;;;6237512;22;20000;-48
2022/06/08 09:46:16;;;;;;;0.00;0.00;;;;;;;;;;6232038;22;20063;-49
2022/06/08 09:51:50;;;;;;;0.40;0.20;;;;;;;;;;6170350;22;20025;-48
2022/06/08 09:54:33;;;;;;;0.10;0.10;;;;;;;;;;6230859;22;20020;-50
2022/06/08 09:56:59;;;;;;;0.00;0.00;;;;;;;;;;6237463;22;20035;-51
2022/06/08 09:59:40;;;;;;;0.20;0.20;;;;;;;;;;6218927;22;20016;-52
2022/06/08 10:02:24;;;;;;;0.00;0.00;;;;;;;;;;6234434;22;20576;-50
2022/06/08 10:04:58;;;;;;;0.00;0.00;;;;;;;;;;6236952;22;20019;-50
2022/06/08 10:07:30;;;;;;;0.00;0.00;;;;;;;;;;6223514;22;20022;-51
2022/06/08 10:09:55;;;;;;;0.17;0.17;;;;;;;;;;6233426;22;20245;-48
2022/06/08 10:12:40;;;;;;;0.00;0.00;;;;;;;;;;6228599;22;20077;-45
2022/06/08 10:15:15;;;;;;;0.00;0.00;;;;;;;;;;6232414;22;20486;-47
2022/06/08 10:17:46;;;;;;;14.30;1.58;;;;;;;;;;6237297;22;20004;-48
2022/06/08 10:20:14;;;;;;;1.27;0.10;;;;;;;;;;6235717;22;20043;-49
2022/06/08 10:22:49;;;;;;;13.95;1.88;;;;;;;;;;6236608;23;20068;-51
2022/06/08 10:25:38;;;;;;;0.00;0.00;;;;;;;;;;6235293;22;20076;-50
2022/06/08 10:28:33;;;;;;;0.00;0.00;;;;;;;;;;6201332;22;20008;-50
2022/06/08 10:31:10;;;;;;;7.88;1.10;;;;;;;;;;6220131;22;20012;-51
2022/06/08 10:33:42;;;;;;;0.00;0.00;;;;;;;;;;6230946;22;20013;-52
2022/06/08 10:36:10;;;;;;;0.00;0.00;;;;;;;;;;6213522;23;20039;-51
2022/06/08 10:38:37;;;;;;;0.00;0.00;;;;;;;;;;6224980;22;20055;-51
2022/06/08 10:44:22;;;;;;;1.10;0.63;;;;;;;;;;6231469;22;20031;-52
2022/06/08 10:46:48;;;;;;;0.00;0.00;;;;;;;;;;6238088;22;20004;-51
2022/06/08 10:49:20;;;;;;;0.20;0.20;;;;;;;;;;6233841;22;20099;-52
2022/06/08 10:52:05;;;;;;;0.00;0.00;;;;;;;;;;6238749;22;20028;-49
2022/06/08 10:57:34;;;;;;;0.00;0.00;;;;;;;;;;6226987;22;20019;-51
2022/06/08 11:00:21;;;;;;;0.00;0.00;;;;;;;;;;6239405;22;20034;-48
2022/06/08 11:02:51;;;;;;;0.00;0.00;;;;;;;;;;6233400;22;20004;-51
2022/06/08 11:05:40;;;;;;;0.25;0.25;;;;;;;;;;6232088;22;20016;-49
2022/06/08 11:08:09;;;;;;;20.08;1.77;;;;;;;;;;6186711;23;20008;-50
2022/06/08 11:10:51;;;;;;;0.00;0.00;;;;;;;;;;6239520;22;20012;-51
2022/06/08 11:13:22;;;;;;;1.88;0.43;;;;;;;;;;6235528;22;20039;-48
2022/06/08 11:15:48;;;;;;;0.00;0.00;;;;;;;;;;6239613;22;20068;-54
2022/06/08 11:18:17;;;;;;;0.35;0.35;;;;;;;;;;6236889;22;20016;-49
2022/06/08 11:20:47;;;;;;;0.00;0.00;;;;;;;;;;6239407;22;20365;-50
2022/06/08 11:23:18;;;;;;;0.00;0.00;;;;;;;;;;6233081;22;20458;-49
2022/06/08 11:26:04;;;;;;;0.00;0.00;;;;;;;;;;6238997;22;20008;-50
2022/06/08 11:28:40;;;;;;;2.28;0.90;;;;;;;;;;6231827;22;20020;-50
2022/06/08 11:31:24;;;;;;;0.00;0.00;;;;;;;;;;6236642;22;20206;-49
2022/06/08 11:33:56;;;;;;;0.05;0.05;;;;;;;;;;6237796;22;20019;-51
2022/06/08 11:36:50;;;;;;;0.00;0.00;;;;;;;;;;6238277;22;20019;-53
2022/06/08 11:39:24;;;;;;;0.10;0.10;;;;;;;;;;6227214;22;20090;-47
2022/06/08 11:42:08;;;;;;;0.00;0.00;;;;;;;;;;6237343;22;20058;-47
2022/06/08 11:44:34;;;;;;;1.45;0.10;;;;;;;;;;6236434;22;20028;-50
2022/06/08 11:47:23;;;;;;;0.00;0.00;;;;;;;;;;6237185;22;20016;-51
2022/06/08 11:50:00;;;;;;;1.67;0.30;;;;;;;;;;6193549;23;20024;-52
2022/06/08 11:52:31;;;;;;;0.00;0.00;;;;;;;;;;6236493;23;20092;-50
2022/06/08 11:55:14;;;;;;;6.45;1.08;;;;;;;;;;6211296;23;20534;-52
2022/06/08 11:57:48;;;;;;;0.00;0.00;;;;;;;;;;6264596;22;20008;-53
2022/06/08 12:00:21;;;;;;;0.00;0.00;;;;;;;;;;6265999;22;20258;-50
2022/06/08 12:02:48;;;;;;;0.00;0.00;;;;;;;;;;6265397;22;20035;-50
2022/06/08 12:05:19;;;;;;;0.00;0.00;;;;;;;;;;6266155;22;20253;-52
2022/06/08 12:07:51;;;;;;;0.00;0.00;;;;;;;;;;6240047;22;20024;-49
2022/06/08 12:10:20;;;;;;;0.00;0.00;;;;;;;;;;6265546;22;20028;-51
2022/06/08 12:12:45;;;;;;;0.00;0.00;;;;;;;;;;6268464;22;20012;-51
2022/06/08 12:15:29;;;;;;;0.00;0.00;;;;;;;;;;6256804;22;20019;-48
2022/06/08 12:17:55;;;;;;;0.00;0.00;;;;;;;;;;6267814;22;20014;-52
2022/06/08 12:20:31;;;;;;;0.47;0.47;;;;;;;;;;6267840;22;20012;-49
2022/06/08 12:22:56;;;;;;;0.05;0.05;;;;;;;;;;6270654;22;20007;-49
2022/06/08 12:25:23;;;;;;;0.00;0.00;;;;;;;;;;6262963;22;20095;-51
2022/06/08 12:27:53;;;;;;;0.10;0.10;;;;;;;;;;6262007;22;20033;-48
2022/06/08 12:30:18;;;;;;;;;;;;;;;;;;6265667;22;20015;-47
2022/06/08 12:33:09;;;;;;;0.00;0.00;;;;;;;;;;6268227;22;19903;-53
2022/06/08 12:35:37;;;;;;;0.35;0.35;;;;;;;;;;6204035;22;20012;-51
2022/06/08 12:38:05;;;;;;;0.10;0.10;;;;;;;;;;6257707;22;20008;-49
2022/06/08 12:40:32;;;;;;;0.00;0.00;;;;;;;;;;6261940;22;21719;-49
2022/06/08 12:43:11;;;;;;;3.75;0.15;;;;;;;;;;6261246;22;20019;-50
2022/06/08 12:45:42;;;;;;;0.00;0.00;;;;;;;;;;6265086;22;20119;-51
2022/06/08 12:48:16;;;;;;;0.00;0.00;;;;;;;;;;6259109;22;20024;-50
2022/06/08 12:50:41;;;;;;;0.13;0.13;;;;;;;;;;6258255;22;20477;-50
2022/06/08 12:53:07;;;;;;;0.00;0.00;;;;;;;;;;6259292;22;20012;-49
2022/06/08 12:55:36;;;;;;;0.00;0.00;;;;;;;;;;6263194;22;20021;-47
2022/06/08 12:58:02;;;;;;;0.00;0.00;;;;;;;;;;6265798;22;20014;-51
2022/06/08 13:00:30;;;;;;;0.15;0.15;;;;;;;;;;6263385;22;20039;-49
2022/06/08 13:02:57;;;;;;;0.00;0.00;;;;;;;;;;6269296;22;20292;-49
2022/06/08 13:05:26;;;;;;;0.00;0.00;;;;;;;;;;6237338;22;20016;-50
2022/06/08 13:07:56;;;;;;;0.08;0.08;;;;;;;;;;6268775;22;20008;-51
2022/06/08 13:10:26;;;;;;;0.00;0.00;;;;;;;;;;6263345;22;20030;-49
2022/06/08 13:12:54;;;;;;;0.00;0.00;;;;;;;;;;6262589;22;20003;-48
2022/06/08 13:15:24;;;;;;;0.00;0.00;;;;;;;;;;6238494;22;20244;-51
2022/06/08 13:17:49;;;;;;;0.30;0.10;;;;;;;;;;6266813;22;20007;-49
2022/06/08 13:20:17;;;;;;;0.00;0.00;;;;;;;;;;6263678;22;20113;-49
2022/06/08 13:22:42;;;;;;;0.00;0.00;;;;;;;;;;6269331;22;20016;-53
2022/06/08 13:25:09;;;;;;;0.00;0.00;;;;;;;;;;6264760;22;20004;-51
2022/06/08 13:27:36;;;;;;;0.30;0.30;;;;;;;;;;6266474;22;20055;-52
2022/06/08 13:30:02;;;;;;;0.00;0.00;;;;;;;;;;6267329;22;20374;-51
2022/06/08 13:32:28;;;;;;;0.00;0.00;;;;;;;;;;6267409;22;20085;-53
2022/06/08 13:34:53;;;;;;;0.00;0.00;;;;;;;;;;6265610;22;20455;-53
2022/06/08 13:37:19;;;;;;;0.00;0.00;;;;;;;;;;6265387;22;20593;-50
2022/06/08 13:39:44;;;;;;;0.00;0.00;;;;;;;;;;6260645;22;20747;-51
2022/06/08 13:42:14;;;;;;;0.00;0.00;;;;;;;;;;6265790;22;20012;-51
2022/06/08 13:44:41;;;;;;;0.00;0.00;;;;;;;;;;6238071;22;20012;-51
2022/06/08 13:47:18;;;;;;;0.00;0.00;;;;;;;;;;6261172;22;20046;-53
2022/06/08 13:49:48;;;;;;;0.00;0.00;;;;;;;;;;6264771;22;20055;-50
2022/06/08 13:52:14;;;;;;;0.00;0.00;;;;;;;;;;6234940;22;20126;-50
2022/06/08 13:54:44;;;;;;;0.00;0.00;;;;;;;;;;6265458;22;20008;-52
2022/06/08 13:57:11;;;;;;;0.00;0.00;;;;;;;;;;6266895;22;20000;-51
2022/06/08 13:59:37;;;;;;;0.13;0.13;;;;;;;;;;6245631;22;20027;-48
2022/06/08 14:02:08;;;;;;;0.00;0.00;;;;;;;;;;6265916;22;20012;-52
2022/06/08 14:04:33;;;;;;;0.00;0.00;;;;;;;;;;6258690;22;20012;-52
2022/06/08 14:15:13;;;;;;;0.00;0.00;;;;;;;;;;6268389;22;20071;-50
2022/06/08 14:17:39;;;;;;;0.00;0.00;;;;;;;;;;6265311;22;20034;-52
2022/06/08 14:20:05;;;;;;;0.00;0.00;;;;;;;;;;6270865;22;20031;-49
2022/06/08 14:22:34;;;;;;;0.00;0.00;;;;;;;;;;6264789;22;20007;-54
2022/06/08 14:25:04;;;;;;;0.00;0.00;;;;;;;;;;6269563;22;20137;-52
2022/06/08 14:27:31;;;;;;;3.03;0.28;;;;;;;;;;6263560;22;20008;-55
2022/06/08 14:29:57;;;;;;;0.10;0.10;;;;;;;;;;6269514;22;20087;-52
2022/06/08 14:32:22;;;;;;;0.00;0.00;;;;;;;;;;6262822;22;20023;-50
2022/06/08 14:34:48;;;;;;;0.00;0.00;;;;;;;;;;6270007;22;20012;-53
2022/06/08 14:37:15;;;;;;;0.00;0.00;;;;;;;;;;6263921;22;20015;-52
2022/06/08 14:39:42;;;;;;;0.00;0.00;;;;;;;;;;6272193;22;20022;-51
2022/06/08 14:42:08;;;;;;;0.00;0.00;;;;;;;;;;6264584;22;20056;-50
2022/06/08 14:44:34;;;;;;;0.20;0.20;;;;;;;;;;6269105;22;20016;-49
2022/06/08 14:47:00;;;;;;;0.00;0.00;;;;;;;;;;6268549;22;20039;-51
2022/06/08 14:49:28;;;;;;;0.00;0.00;;;;;;;;;;6260553;22;20815;-53
2022/06/08 14:51:55;;;;;;;0.00;0.00;;;;;;;;;;6238336;22;20027;-52
2022/06/08 14:54:25;;;;;;;0.00;0.00;;;;;;;;;;6235655;22;20246;-51
2022/06/08 14:57:00;;;;;;;0.00;0.00;;;;;;;;;;6235577;22;20060;-50
2022/06/08 14:59:26;;;;;;;0.00;0.00;;;;;;;;;;6238450;22;20071;-52
2022/06/08 15:01:54;;;;;;;0.00;0.00;;;;;;;;;;6238305;22;20078;-51
2022/06/08 15:04:21;;;;;;;0.00;0.00;;;;;;;;;;6237087;22;20015;-51
2022/06/08 15:06:47;;;;;;;0.10;0.10;;;;;;;;;;6238125;22;20047;-49
2022/06/08 15:09:13;;;;;;;0.00;0.00;;;;;;;;;;6236649;22;20070;-51
2022/06/08 15:11:58;;;;;;;0.00;0.00;;;;;;;;;;6238271;22;20008;-51
2022/06/08 15:14:23;;;;;;;0.00;0.00;;;;;;;;;;6235791;22;20004;-50
2022/06/08 15:16:51;;;;;;;0.52;0.10;;;;;;;;;;6236041;22;20020;-53